Hovedside
METAR-TAF:

METAR-TAF

Lufthavner :

Stauning lufthavn

Ringkøbing-Skjern, Danmark

breddegrad: 56-00N, lengdegrad: 008-21E, høyde over havet: 5 m

Gjeldene værobservasjon

Denne rapporten ble laget for 7 timer og 17 minutter siden, klokken 13:50 UTC
Vind 25 kt fra Øst med vindkast opp mot 36 kt
Temperatur 18°C
Luftfuktighet 45%
Trykk 1010 hPa
Sikt: 1200 m
Skyfri himmel
mye støv

METAR: EKVJ 231350Z 10025G36KT 1200 DU SKC 18/06 Q1010

Tid: 23:07 (21:07 UTC)

Varsel

Denne rapporten ble laget for 10 timer og 47 minutter siden, klokken 10:20 UTC
Varsel gyldig fra 23. klokken 09 UTC til 23. klokken 15 UTC
Vind 18 kt fra Øst
Sikt 10 km eller mer
ingen skyer under 1500 m og ingen bygeskyer
Midlertidig
fra 23. klokken 10 UTC til 23. klokken 15 UTC
Vind 25 kt fra Øst-sørøst med vindkast opp mot 45 kt
Sikt: 1200 m
mye støv

TAF: EKVJ 231020Z 2309/2315 10018KT CAVOK TEMPO 2310/2315 11025G45KT 1200 DU

Værobservasjoner og værvarsel for over 4000 flyplasser (METAR- og TAF-rapporter).

Tilgjengelige stasjoner er representert av de røde og gule prikkene på kartet.

Hold musepekeren over prikken for å se navnet på stasjonen.

Klikk så for å se værobservasjoner og -varsler.

For å forandre kartet kan du klikke på den grønne knappen med svart kryss for å zoome inn, på den grønne knappen med strek for å zoome ut, eller på de grønne pilene for å se tilstøtende kart.


METAR-TAF: